Time;durP1;ratioP1;P1;durP2;ratioP2;P2;SDS_P1;SDS_P2;PMS_P1;PMS_P2;Temp;Humidity;BMP_temperature;BMP_pressure;BME280_temperature;BME280_humidity;BME280_pressure;Samples;Min_cycle;Max_cycle;Signal;HPM_P1;HPM_P2
2021/08/04 00:00:42;;;;;;;17.98;11.73;;;;;;;;;;5001083;28;20061;-79
2021/08/04 00:03:09;;;;;;;19.23;10.45;;;;;;;;;;5006634;28;20484;-79
2021/08/04 00:05:37;;;;;;;27.33;17.13;;;;;;;;;;4997799;28;20148;-79
2021/08/04 00:08:04;;;;;;;16.83;9.88;;;;;;;;;;4996280;28;20072;-78
2021/08/04 00:10:32;;;;;;;17.88;10.15;;;;;;;;;;4989961;28;20061;-81
2021/08/04 00:12:59;;;;;;;16.98;9.95;;;;;;;;;;5006659;28;20037;-78
2021/08/04 00:15:26;;;;;;;13.68;7.65;;;;;;;;;;4984470;28;20048;-77
2021/08/04 00:17:54;;;;;;;12.65;7.97;;;;;;;;;;5006372;28;20562;-83
2021/08/04 00:20:22;;;;;;;13.55;7.28;;;;;;;;;;4991186;28;20132;-78
2021/08/04 00:22:49;;;;;;;15.60;9.45;;;;;;;;;;5007676;28;20098;-78
2021/08/04 00:25:16;;;;;;;14.57;8.05;;;;;;;;;;5008327;28;20131;-82
2021/08/04 00:27:44;;;;;;;19.83;12.57;;;;;;;;;;4990812;28;20077;-80
2021/08/04 00:30:12;;;;;;;10.98;7.15;;;;;;;;;;5014207;28;20428;-80
2021/08/04 00:32:39;;;;;;;13.60;6.95;;;;;;;;;;5023848;28;20103;-80
2021/08/04 00:35:07;;;;;;;17.45;11.05;;;;;;;;;;5007085;28;20112;-81
2021/08/04 00:37:34;;;;;;;14.15;7.75;;;;;;;;;;5006608;28;20973;-80
2021/08/04 00:40:02;;;;;;;15.70;8.40;;;;;;;;;;4990418;28;20041;-79
2021/08/04 00:42:29;;;;;;;14.05;7.70;;;;;;;;;;4989625;28;20041;-80
2021/08/04 00:44:58;;;;;;;12.77;6.88;;;;;;;;;;5024611;28;20519;-81
2021/08/04 00:47:25;;;;;;;11.90;6.85;;;;;;;;;;5007283;28;20484;-81
2021/08/04 00:49:54;;;;;;;15.05;7.13;;;;;;;;;;5005994;28;20107;-79
2021/08/04 00:52:21;;;;;;;13.60;7.63;;;;;;;;;;5006733;28;20064;-78
2021/08/04 00:54:48;;;;;;;16.92;8.23;;;;;;;;;;5008490;28;20041;-78
2021/08/04 00:57:15;;;;;;;15.40;7.55;;;;;;;;;;4990897;28;20096;-77
2021/08/04 00:59:42;;;;;;;13.32;8.27;;;;;;;;;;4983071;28;20045;-81
2021/08/04 01:02:24;;;;;;;14.43;7.38;;;;;;;;;;4982895;28;20399;-78
2021/08/04 01:04:54;;;;;;;13.32;7.65;;;;;;;;;;4984155;28;20042;-81
2021/08/04 01:07:26;;;;;;;11.75;6.90;;;;;;;;;;4970463;28;20046;-77
2021/08/04 01:10:01;;;;;;;10.45;5.88;;;;;;;;;;5003826;28;20038;-78
2021/08/04 01:12:40;;;;;;;11.45;6.53;;;;;;;;;;4989086;28;20416;-80
2021/08/04 01:15:08;;;;;;;12.57;6.90;;;;;;;;;;4990963;28;20046;-77
2021/08/04 01:17:38;;;;;;;12.90;6.88;;;;;;;;;;4983713;28;20033;-81
2021/08/04 01:20:12;;;;;;;18.20;7.35;;;;;;;;;;5002941;28;20058;-79
2021/08/04 01:23:02;;;;;;;13.38;7.28;;;;;;;;;;4986524;28;20045;-76
2021/08/04 01:25:36;;;;;;;12.63;6.93;;;;;;;;;;4986726;28;20042;-77
2021/08/04 01:28:34;;;;;;;11.48;5.90;;;;;;;;;;4987234;28;20412;-76
2021/08/04 01:31:25;;;;;;;12.13;6.28;;;;;;;;;;5003612;28;20076;-77
2021/08/04 01:33:54;;;;;;;9.95;5.40;;;;;;;;;;5003447;28;20124;-77
2021/08/04 01:36:22;;;;;;;10.82;5.03;;;;;;;;;;5003944;28;20049;-76
2021/08/04 01:38:50;;;;;;;9.55;5.18;;;;;;;;;;5004173;28;20041;-77
2021/08/04 01:41:19;;;;;;;10.60;5.15;;;;;;;;;;5002869;28;20066;-76
2021/08/04 01:43:47;;;;;;;11.02;5.18;;;;;;;;;;5003016;28;20416;-76
2021/08/04 01:46:16;;;;;;;10.00;5.90;;;;;;;;;;4986683;28;20065;-77
2021/08/04 01:48:44;;;;;;;9.68;5.03;;;;;;;;;;4999563;28;20072;-77
2021/08/04 01:51:13;;;;;;;9.35;4.95;;;;;;;;;;4970135;28;20041;-76
2021/08/04 01:53:44;;;;;;;10.07;5.47;;;;;;;;;;4987387;28;20045;-77
2021/08/04 01:56:14;;;;;;;10.23;5.13;;;;;;;;;;4985955;28;20124;-77
2021/08/04 01:58:42;;;;;;;10.65;5.90;;;;;;;;;;4976399;28;20079;-76
2021/08/04 02:01:10;;;;;;;12.50;5.93;;;;;;;;;;4986263;28;20048;-76
2021/08/04 02:03:38;;;;;;;8.68;4.75;;;;;;;;;;4986942;28;20034;-76
2021/08/04 02:06:41;;;;;;;13.75;5.07;;;;;;;;;;5003089;28;20099;-77
2021/08/04 02:09:22;;;;;;;12.65;5.75;;;;;;;;;;4986304;28;20038;-76
2021/08/04 02:12:08;;;;;;;12.23;6.35;;;;;;;;;;5003864;28;20121;-80
2021/08/04 02:14:56;;;;;;;10.02;5.50;;;;;;;;;;5002663;28;20034;-76
2021/08/04 02:17:37;;;;;;;10.48;5.80;;;;;;;;;;4985565;28;20078;-78
2021/08/04 02:20:27;;;;;;;11.10;5.75;;;;;;;;;;4986198;28;20463;-77
2021/08/04 02:23:01;;;;;;;8.45;5.00;;;;;;;;;;4980420;28;20117;-76
2021/08/04 02:25:39;;;;;;;10.20;5.68;;;;;;;;;;4970237;28;20057;-76
2021/08/04 02:28:10;;;;;;;9.55;5.57;;;;;;;;;;5003373;28;20041;-77
2021/08/04 02:30:39;;;;;;;10.60;6.15;;;;;;;;;;5003423;28;20070;-77
2021/08/04 02:33:07;;;;;;;11.57;5.53;;;;;;;;;;4985518;28;20048;-77
2021/08/04 02:35:34;;;;;;;11.02;5.78;;;;;;;;;;5003991;28;20042;-77
2021/08/04 02:38:01;;;;;;;12.57;5.75;;;;;;;;;;4986475;28;20116;-80
2021/08/04 02:40:29;;;;;;;10.82;6.07;;;;;;;;;;5002903;28;20050;-77
2021/08/04 02:43:00;;;;;;;11.35;6.57;;;;;;;;;;4986296;28;20508;-78
2021/08/04 02:45:27;;;;;;;11.43;6.25;;;;;;;;;;5003423;28;20054;-76
2021/08/04 02:47:55;;;;;;;12.13;6.18;;;;;;;;;;5002823;28;20045;-79
2021/08/04 02:50:23;;;;;;;15.93;7.55;;;;;;;;;;4986031;28;20046;-76
2021/08/04 02:52:51;;;;;;;18.83;7.60;;;;;;;;;;5003463;28;20038;-76
2021/08/04 02:55:18;;;;;;;16.40;7.70;;;;;;;;;;5002483;28;20068;-77
2021/08/04 02:57:45;;;;;;;18.23;7.90;;;;;;;;;;4986131;28;20053;-76
2021/08/04 03:00:13;;;;;;;14.20;6.97;;;;;;;;;;5001465;28;20034;-77
2021/08/04 03:02:40;;;;;;;15.27;8.00;;;;;;;;;;5003468;28;20117;-76
2021/08/04 03:05:07;;;;;;;14.85;7.68;;;;;;;;;;4986343;28;20054;-77
2021/08/04 03:07:34;;;;;;;13.05;6.57;;;;;;;;;;4985693;28;20440;-78
2021/08/04 03:10:01;;;;;;;15.45;7.00;;;;;;;;;;5004123;28;20042;-76
2021/08/04 03:12:29;;;;;;;16.23;7.40;;;;;;;;;;4986746;28;20038;-76
2021/08/04 03:14:56;;;;;;;15.48;7.90;;;;;;;;;;5004419;28;20109;-76
2021/08/04 03:17:23;;;;;;;14.57;6.95;;;;;;;;;;5003664;28;20042;-75
2021/08/04 03:19:50;;;;;;;14.50;7.45;;;;;;;;;;5002835;28;20225;-78
2021/08/04 03:22:17;;;;;;;16.00;7.30;;;;;;;;;;5003407;28;20444;-78
2021/08/04 03:24:44;;;;;;;17.05;8.10;;;;;;;;;;5003222;28;20066;-78
2021/08/04 03:27:11;;;;;;;13.13;6.72;;;;;;;;;;5003810;28;20042;-77
2021/08/04 03:29:38;;;;;;;15.20;8.07;;;;;;;;;;5003475;28;20400;-78
2021/08/04 03:32:06;;;;;;;15.75;7.85;;;;;;;;;;5002034;28;20077;-79
2021/08/04 03:34:33;;;;;;;15.82;7.75;;;;;;;;;;5003893;28;20416;-78
2021/08/04 03:37:00;;;;;;;13.40;7.53;;;;;;;;;;4989325;28;20077;-77
2021/08/04 03:39:27;;;;;;;16.80;8.18;;;;;;;;;;5006971;28;20416;-80
2021/08/04 03:41:56;;;;;;;16.55;9.27;;;;;;;;;;5006459;28;20046;-78
2021/08/04 03:44:23;;;;;;;16.00;8.65;;;;;;;;;;5005730;28;20052;-78
2021/08/04 03:46:51;;;;;;;18.10;8.85;;;;;;;;;;5007247;28;20420;-78
2021/08/04 03:49:18;;;;;;;18.25;8.80;;;;;;;;;;5005634;28;20452;-78
2021/08/04 03:51:45;;;;;;;17.08;8.95;;;;;;;;;;5004658;28;20054;-79
2021/08/04 03:54:13;;;;;;;18.02;7.75;;;;;;;;;;5006032;28;20038;-83
2021/08/04 03:56:40;;;;;;;17.17;9.00;;;;;;;;;;4972468;28;20112;-78
2021/08/04 03:59:07;;;;;;;18.13;9.10;;;;;;;;;;5006277;28;20072;-78
2021/08/04 04:01:34;;;;;;;19.10;8.70;;;;;;;;;;5006118;28;20045;-83
2021/08/04 04:04:01;;;;;;;17.25;9.10;;;;;;;;;;4988719;28;20052;-79
2021/08/04 04:06:28;;;;;;;16.83;9.63;;;;;;;;;;4988858;28;20054;-78
2021/08/04 04:08:55;;;;;;;15.75;7.93;;;;;;;;;;5004704;28;20386;-83
2021/08/04 04:11:22;;;;;;;18.55;8.65;;;;;;;;;;4972235;28;20404;-78
2021/08/04 04:13:49;;;;;;;18.30;8.57;;;;;;;;;;5006069;28;20459;-79
2021/08/04 04:16:16;;;;;;;17.52;7.95;;;;;;;;;;4988497;28;20049;-82
2021/08/04 04:18:44;;;;;;;16.33;8.55;;;;;;;;;;5005205;28;20045;-78
2021/08/04 04:21:11;;;;;;;17.92;8.70;;;;;;;;;;4988117;28;20175;-78
2021/08/04 04:23:38;;;;;;;16.42;8.40;;;;;;;;;;4989108;28;20439;-83
2021/08/04 04:26:05;;;;;;;15.50;8.30;;;;;;;;;;5005920;28;20049;-78
2021/08/04 04:28:32;;;;;;;17.30;8.35;;;;;;;;;;5005571;28;20046;-78
2021/08/04 04:30:59;;;;;;;16.98;8.38;;;;;;;;;;5005822;28;20420;-80
2021/08/04 04:33:26;;;;;;;16.73;8.45;;;;;;;;;;4988276;28;20468;-78
2021/08/04 04:35:55;;;;;;;14.00;6.88;;;;;;;;;;4988911;28;20575;-78
2021/08/04 04:38:22;;;;;;;16.42;8.88;;;;;;;;;;4987511;28;20046;-78
2021/08/04 04:40:49;;;;;;;15.48;8.07;;;;;;;;;;4987491;28;20511;-79
2021/08/04 04:43:19;;;;;;;17.30;7.97;;;;;;;;;;5005521;28;20515;-78
2021/08/04 04:45:47;;;;;;;16.33;7.55;;;;;;;;;;4987811;28;20056;-78
2021/08/04 04:48:15;;;;;;;14.07;7.30;;;;;;;;;;5005281;28;20042;-78
2021/08/04 04:50:42;;;;;;;14.45;7.97;;;;;;;;;;5005941;28;20049;-84
2021/08/04 04:53:09;;;;;;;15.10;8.23;;;;;;;;;;5004475;28;20042;-78
2021/08/04 04:55:38;;;;;;;13.23;7.53;;;;;;;;;;5005317;28;20054;-78
2021/08/04 04:58:05;;;;;;;14.63;6.75;;;;;;;;;;5003969;28;20065;-77
2021/08/04 05:00:32;;;;;;;15.55;8.27;;;;;;;;;;5005080;28;20042;-79
2021/08/04 05:02:59;;;;;;;15.85;7.97;;;;;;;;;;4971567;28;20132;-78
2021/08/04 05:05:27;;;;;;;15.60;7.30;;;;;;;;;;4988061;28;20038;-78
2021/08/04 05:07:54;;;;;;;14.63;7.45;;;;;;;;;;4986949;28;20146;-78
2021/08/04 05:10:21;;;;;;;15.88;7.68;;;;;;;;;;4988075;28;20045;-78
2021/08/04 05:12:48;;;;;;;15.32;7.13;;;;;;;;;;4987889;28;20105;-78
2021/08/04 05:15:15;;;;;;;13.32;6.47;;;;;;;;;;4987426;28;20053;-78
2021/08/04 05:17:42;;;;;;;17.05;7.57;;;;;;;;;;4988234;28;20042;-78
2021/08/04 05:20:10;;;;;;;17.00;8.98;;;;;;;;;;4971281;28;20038;-78
2021/08/04 05:22:37;;;;;;;18.38;9.35;;;;;;;;;;5005170;28;20041;-78
2021/08/04 05:25:05;;;;;;;19.25;10.05;;;;;;;;;;5004689;28;20046;-78
2021/08/04 05:27:32;;;;;;;17.77;8.63;;;;;;;;;;4986263;28;20472;-83
2021/08/04 05:29:59;;;;;;;20.75;10.63;;;;;;;;;;5004653;28;20056;-78
2021/08/04 05:32:26;;;;;;;16.95;9.23;;;;;;;;;;4986922;28;20045;-78
2021/08/04 05:34:53;;;;;;;17.70;7.85;;;;;;;;;;4987379;28;20392;-83
2021/08/04 05:37:20;;;;;;;17.80;9.43;;;;;;;;;;5004142;28;20492;-78
2021/08/04 05:39:47;;;;;;;14.70;9.05;;;;;;;;;;5003791;28;20046;-78
2021/08/04 05:42:15;;;;;;;21.08;9.27;;;;;;;;;;5004174;28;20038;-81
2021/08/04 05:44:44;;;;;;;18.77;9.57;;;;;;;;;;4986755;28;20056;-84
2021/08/04 05:47:10;;;;;;;;;;;;;;;;;;5003856;28;20042;-83
2021/08/04 05:49:38;;;;;;;;;;;;;;;;;;5005151;28;19921;-78
2021/08/04 05:52:05;;;;;;;16.17;8.18;;;;;;;;;;5004015;28;20276;-78
2021/08/04 05:54:35;;;;;;;15.77;7.35;;;;;;;;;;5004653;28;20050;-79
2021/08/04 05:57:02;;;;;;;16.58;8.02;;;;;;;;;;4987196;28;20037;-78
2021/08/04 05:59:29;;;;;;;16.45;6.72;;;;;;;;;;4985996;28;20038;-80
2021/08/04 06:01:56;;;;;;;15.15;6.38;;;;;;;;;;4986447;28;20050;-79
2021/08/04 06:04:23;;;;;;;13.07;6.53;;;;;;;;;;5004976;28;20408;-78
2021/08/04 06:06:50;;;;;;;9.57;5.22;;;;;;;;;;5004114;28;20046;-80
2021/08/04 06:09:17;;;;;;;10.13;5.63;;;;;;;;;;5003515;28;20046;-78
2021/08/04 06:11:44;;;;;;;10.25;5.18;;;;;;;;;;4986512;28;20042;-79
2021/08/04 06:14:11;;;;;;;10.93;5.40;;;;;;;;;;5004061;28;20046;-78
2021/08/04 06:16:38;;;;;;;12.77;4.90;;;;;;;;;;5003793;28;20076;-78
2021/08/04 06:19:05;;;;;;;8.18;4.43;;;;;;;;;;4986654;28;20042;-78
2021/08/04 06:21:32;;;;;;;7.50;3.55;;;;;;;;;;5003740;28;20463;-78
2021/08/04 06:23:59;;;;;;;4.93;2.35;;;;;;;;;;5004071;28;20037;-78
2021/08/04 06:26:26;;;;;;;4.72;2.45;;;;;;;;;;4986082;28;20049;-79
2021/08/04 06:28:53;;;;;;;4.90;2.35;;;;;;;;;;5004037;28;20053;-81
2021/08/04 06:31:20;;;;;;;5.28;2.50;;;;;;;;;;5003550;28;20108;-78
2021/08/04 06:33:47;;;;;;;5.00;2.50;;;;;;;;;;4986326;28;20046;-79
2021/08/04 06:36:14;;;;;;;4.00;2.10;;;;;;;;;;5003342;28;20396;-82
2021/08/04 06:38:41;;;;;;;5.13;1.92;;;;;;;;;;4986471;28;20077;-78
2021/08/04 06:41:08;;;;;;;6.72;2.53;;;;;;;;;;5003378;28;20459;-78
2021/08/04 06:43:36;;;;;;;5.35;2.38;;;;;;;;;;5002983;28;20379;-80
2021/08/04 06:46:12;;;;;;;4.05;1.90;;;;;;;;;;5004141;28;20088;-77
2021/08/04 06:48:43;;;;;;;3.92;2.22;;;;;;;;;;5002231;28;20482;-78
2021/08/04 06:51:16;;;;;;;4.70;2.50;;;;;;;;;;5003332;28;20124;-78
2021/08/04 06:53:48;;;;;;;3.60;2.00;;;;;;;;;;5003275;28;20432;-78
2021/08/04 06:56:16;;;;;;;4.90;1.88;;;;;;;;;;5002559;28;20081;-78
2021/08/04 06:58:44;;;;;;;3.55;1.98;;;;;;;;;;4986108;28;20068;-78
2021/08/04 07:01:11;;;;;;;4.28;2.00;;;;;;;;;;5003502;28;20068;-79
2021/08/04 07:03:38;;;;;;;6.10;2.13;;;;;;;;;;5003422;28;20511;-77
2021/08/04 07:06:09;;;;;;;3.28;1.83;;;;;;;;;;5002660;28;20053;-78
2021/08/04 07:08:37;;;;;;;3.25;1.80;;;;;;;;;;4985328;28;20141;-78
2021/08/04 07:11:05;;;;;;;5.60;2.55;;;;;;;;;;5006790;28;20100;-82
2021/08/04 07:13:36;;;;;;;4.05;2.00;;;;;;;;;;5007369;28;20038;-78
2021/08/04 07:16:03;;;;;;;5.38;2.63;;;;;;;;;;5005658;28;20100;-78
2021/08/04 07:18:31;;;;;;;5.38;2.38;;;;;;;;;;4989685;28;20045;-78
2021/08/04 07:20:59;;;;;;;5.13;2.42;;;;;;;;;;4989950;28;20451;-78
2021/08/04 07:23:26;;;;;;;5.93;2.75;;;;;;;;;;4989738;28;20069;-82
2021/08/04 07:25:53;;;;;;;4.82;2.15;;;;;;;;;;4989085;28;20129;-79
2021/08/04 07:28:20;;;;;;;5.13;2.78;;;;;;;;;;4990400;28;20132;-78
2021/08/04 07:30:47;;;;;;;4.15;2.00;;;;;;;;;;5006203;28;20459;-83
2021/08/04 07:33:14;;;;;;;5.80;2.30;;;;;;;;;;5006221;28;20038;-77
2021/08/04 07:35:41;;;;;;;5.28;2.38;;;;;;;;;;5006455;28;20134;-78
2021/08/04 07:38:09;;;;;;;5.53;2.60;;;;;;;;;;5005539;28;20061;-79
2021/08/04 07:40:36;;;;;;;3.60;2.05;;;;;;;;;;5006605;28;20049;-77
2021/08/04 07:43:03;;;;;;;7.75;2.10;;;;;;;;;;5006472;28;20550;-78
2021/08/04 07:45:30;;;;;;;4.43;2.50;;;;;;;;;;5006934;28;20073;-78
2021/08/04 07:47:57;;;;;;;5.90;2.30;;;;;;;;;;5005395;28;20037;-77
2021/08/04 07:50:24;;;;;;;3.83;1.77;;;;;;;;;;4989336;28;20061;-78
2021/08/04 07:52:52;;;;;;;4.15;2.13;;;;;;;;;;5006828;28;20053;-78
2021/08/04 07:55:19;;;;;;;3.53;2.03;;;;;;;;;;5005568;28;20553;-82
2021/08/04 07:57:46;;;;;;;3.85;2.15;;;;;;;;;;5005979;28;20060;-78
2021/08/04 08:00:14;;;;;;;3.58;2.13;;;;;;;;;;5006527;28;20042;-78
2021/08/04 08:02:41;;;;;;;3.97;1.83;;;;;;;;;;5006166;28;20125;-78
2021/08/04 08:05:09;;;;;;;3.38;1.52;;;;;;;;;;5006439;28;20054;-84
2021/08/04 08:07:36;;;;;;;3.85;1.95;;;;;;;;;;5005341;28;20042;-77
2021/08/04 08:10:04;;;;;;;2.95;1.60;;;;;;;;;;5005804;28;20058;-78
2021/08/04 08:12:31;;;;;;;2.45;1.38;;;;;;;;;;4989461;28;20037;-78
2021/08/04 08:14:58;;;;;;;3.78;1.55;;;;;;;;;;4988600;28;20041;-79
2021/08/04 08:17:25;;;;;;;2.05;1.23;;;;;;;;;;5006024;28;23298;-78
2021/08/04 08:19:52;;;;;;;3.00;1.58;;;;;;;;;;5005626;28;20100;-78
2021/08/04 08:22:20;;;;;;;2.28;1.30;;;;;;;;;;5004308;28;20544;-79
2021/08/04 08:24:47;;;;;;;4.20;1.70;;;;;;;;;;5006037;28;20558;-78
2021/08/04 08:27:14;;;;;;;2.00;1.25;;;;;;;;;;4988370;28;20041;-77
2021/08/04 08:29:41;;;;;;;2.83;1.58;;;;;;;;;;4989344;28;20488;-78
2021/08/04 08:32:08;;;;;;;2.72;1.30;;;;;;;;;;5004381;28;20038;-77
2021/08/04 08:34:35;;;;;;;3.13;1.10;;;;;;;;;;5004944;28;20382;-79
2021/08/04 08:37:02;;;;;;;2.63;1.30;;;;;;;;;;5006025;28;20088;-78
2021/08/04 08:39:31;;;;;;;2.75;1.38;;;;;;;;;;5005069;28;20048;-78
2021/08/04 08:42:00;;;;;;;2.42;1.27;;;;;;;;;;4971642;28;20452;-80
2021/08/04 08:44:28;;;;;;;1.63;1.00;;;;;;;;;;4988768;28;20052;-78
2021/08/04 08:46:55;;;;;;;1.67;1.20;;;;;;;;;;5005188;28;20056;-80
2021/08/04 08:49:27;;;;;;;3.10;1.20;;;;;;;;;;5005622;28;20405;-78
2021/08/04 08:51:58;;;;;;;5.22;1.40;;;;;;;;;;4987890;28;20052;-77
2021/08/04 08:54:29;;;;;;;1.85;1.30;;;;;;;;;;5004698;28;20500;-77
2021/08/04 08:56:56;;;;;;;1.95;1.08;;;;;;;;;;4987331;28;20038;-77
2021/08/04 08:59:23;;;;;;;2.95;1.33;;;;;;;;;;5004016;28;20528;-77
2021/08/04 09:01:51;;;;;;;1.60;0.82;;;;;;;;;;5004358;28;20034;-77
2021/08/04 09:04:18;;;;;;;1.85;1.00;;;;;;;;;;4987773;28;20056;-81
2021/08/04 09:06:49;;;;;;;2.45;1.20;;;;;;;;;;4988326;28;20045;-77
2021/08/04 09:09:20;;;;;;;3.75;1.30;;;;;;;;;;5004348;28;20048;-77
2021/08/04 09:11:55;;;;;;;2.42;1.20;;;;;;;;;;5004939;28;20050;-77
2021/08/04 09:14:29;;;;;;;;;;;;;;;;;;4988488;28;20054;-77
2021/08/04 09:17:04;;;;;;;3.78;1.02;;;;;;;;;;5004118;28;19918;-80
2021/08/04 09:19:33;;;;;;;3.22;1.55;;;;;;;;;;5003865;28;20042;-77
2021/08/04 09:22:09;;;;;;;2.67;1.33;;;;;;;;;;5003941;28;20033;-78
2021/08/04 09:25:07;;;;;;;3.60;1.52;;;;;;;;;;5005300;28;20041;-77
2021/08/04 09:27:46;;;;;;;2.92;1.20;;;;;;;;;;4987165;28;20070;-79
2021/08/04 09:30:22;;;;;;;1.50;0.90;;;;;;;;;;5003473;28;20050;-82
2021/08/04 09:32:50;;;;;;;4.68;1.58;;;;;;;;;;4987272;28;20042;-78
2021/08/04 09:35:22;;;;;;;2.33;1.00;;;;;;;;;;4987036;28;20069;-78
2021/08/04 09:37:50;;;;;;;3.42;1.50;;;;;;;;;;5004241;28;20046;-78
2021/08/04 09:40:21;;;;;;;2.00;1.00;;;;;;;;;;5003472;28;20569;-75
2021/08/04 09:42:54;;;;;;;2.95;1.42;;;;;;;;;;5004172;28;20445;-76
2021/08/04 09:45:43;;;;;;;3.03;1.20;;;;;;;;;;5004607;28;20053;-75
2021/08/04 09:48:14;;;;;;;3.08;1.50;;;;;;;;;;4987678;28;20484;-75
2021/08/04 09:50:48;;;;;;;3.42;1.80;;;;;;;;;;5003687;28;20069;-78
2021/08/04 09:53:20;;;;;;;2.42;1.10;;;;;;;;;;5004405;28;20045;-76
2021/08/04 09:56:08;;;;;;;4.25;1.60;;;;;;;;;;5003160;28;20141;-76
2021/08/04 09:58:45;;;;;;;;;;;;;;;;;;5003318;28;20401;-76
2021/08/04 10:01:15;;;;;;;1.55;0.73;;;;;;;;;;4986724;28;19924;-76
2021/08/04 10:04:04;;;;;;;2.67;0.95;;;;;;;;;;5001598;28;20053;-76
2021/08/04 10:06:35;;;;;;;2.03;0.88;;;;;;;;;;4984642;28;20042;-77
2021/08/04 10:09:02;;;;;;;2.63;1.10;;;;;;;;;;5002266;28;20397;-76
2021/08/04 10:11:30;;;;;;;3.17;1.50;;;;;;;;;;4985955;28;20061;-77
2021/08/04 10:13:59;;;;;;;3.60;2.10;;;;;;;;;;5003993;28;20038;-77
2021/08/04 10:16:34;;;;;;;3.25;1.50;;;;;;;;;;5003952;28;20037;-76
2021/08/04 10:19:05;;;;;;;2.50;1.40;;;;;;;;;;5009600;28;20408;-81
2021/08/04 10:21:34;;;;;;;3.45;1.70;;;;;;;;;;5022318;28;20037;-79
2021/08/04 10:24:02;;;;;;;3.88;2.13;;;;;;;;;;4989786;28;20045;-78
2021/08/04 10:26:29;;;;;;;4.00;2.00;;;;;;;;;;5005893;28;20496;-76
2021/08/04 10:28:57;;;;;;;2.80;1.50;;;;;;;;;;5023074;28;20510;-78
2021/08/04 10:31:26;;;;;;;4.13;1.70;;;;;;;;;;5022019;28;20113;-78
2021/08/04 10:33:58;;;;;;;3.15;1.40;;;;;;;;;;5006638;28;20038;-79
2021/08/04 10:36:33;;;;;;;5.60;1.80;;;;;;;;;;5023062;28;20040;-79
2021/08/04 10:39:06;;;;;;;3.50;1.75;;;;;;;;;;5004860;28;20045;-79
2021/08/04 10:41:35;;;;;;;4.18;1.75;;;;;;;;;;5021754;28;20050;-81
2021/08/04 10:44:05;;;;;;;2.25;1.10;;;;;;;;;;5021271;28;20107;-80
2021/08/04 10:46:32;;;;;;;2.83;1.13;;;;;;;;;;5022086;28;20050;-79
2021/08/04 10:49:06;;;;;;;1.73;0.90;;;;;;;;;;5022114;28;20048;-79
2021/08/04 10:51:37;;;;;;;2.78;1.05;;;;;;;;;;5005156;28;20077;-79
2021/08/04 10:54:17;;;;;;;1.70;0.98;;;;;;;;;;5022824;28;20050;-78
2021/08/04 10:56:45;;;;;;;3.63;1.23;;;;;;;;;;5004843;28;20041;-79
2021/08/04 10:59:12;;;;;;;3.38;1.20;;;;;;;;;;5021814;28;20045;-80
2021/08/04 11:01:39;;;;;;;3.90;1.00;;;;;;;;;;5020807;28;20045;-80
2021/08/04 11:04:13;;;;;;;2.15;1.23;;;;;;;;;;5023487;28;20053;-79
2021/08/04 11:07:08;;;;;;;2.45;1.20;;;;;;;;;;5005212;28;20045;-82
2021/08/04 11:09:44;;;;;;;4.25;2.20;;;;;;;;;;5005326;28;20064;-80
2021/08/04 11:12:15;;;;;;;3.17;1.80;;;;;;;;;;5001838;28;20393;-80
2021/08/04 11:14:47;;;;;;;3.33;1.55;;;;;;;;;;5009760;28;20483;-81
2021/08/04 11:17:18;;;;;;;2.78;1.60;;;;;;;;;;4969647;28;20160;-80
2021/08/04 11:19:58;;;;;;;2.03;1.30;;;;;;;;;;4994816;28;20480;-79
2021/08/04 11:22:27;;;;;;;2.67;1.20;;;;;;;;;;5019479;28;20511;-78
2021/08/04 11:24:58;;;;;;;2.15;1.45;;;;;;;;;;5011112;28;20037;-82
2021/08/04 11:27:28;;;;;;;3.80;1.35;;;;;;;;;;5000039;28;20496;-77
2021/08/04 11:29:57;;;;;;;3.30;1.15;;;;;;;;;;4985232;28;20122;-78
2021/08/04 11:32:29;;;;;;;1.85;1.10;;;;;;;;;;5001876;28;22109;-78
2021/08/04 11:34:58;;;;;;;2.63;1.30;;;;;;;;;;4976783;28;20037;-78
2021/08/04 11:37:28;;;;;;;;;;;;;;;;;;5020897;28;20658;-79
2021/08/04 11:39:57;;;;;;;5.70;1.83;;;;;;;;;;5010096;28;20292;-79
2021/08/04 11:42:29;;;;;;;2.17;1.30;;;;;;;;;;5021539;28;20389;-78
2021/08/04 11:45:03;;;;;;;2.47;1.45;;;;;;;;;;4985463;28;20065;-78
2021/08/04 11:47:30;;;;;;;4.72;1.52;;;;;;;;;;5003712;28;20038;-79
2021/08/04 11:50:05;;;;;;;2.45;1.45;;;;;;;;;;5010947;28;20412;-79
2021/08/04 11:52:36;;;;;;;3.45;1.75;;;;;;;;;;5010585;28;20487;-79
2021/08/04 11:55:12;;;;;;;;;;;;;;;;;;4988149;28;20043;-78
2021/08/04 11:57:46;;;;;;;3.85;1.95;;;;;;;;;;5025574;28;20387;-79
2021/08/04 12:00:28;;;;;;;3.70;1.65;;;;;;;;;;5013414;28;20049;-81
2021/08/04 12:02:55;;;;;;;3.70;1.30;;;;;;;;;;5024852;28;20411;-77
2021/08/04 12:05:22;;;;;;;2.28;1.48;;;;;;;;;;5025290;28;20037;-83
2021/08/04 12:07:49;;;;;;;3.35;1.17;;;;;;;;;;5005664;28;20516;-78
2021/08/04 12:10:21;;;;;;;2.83;1.17;;;;;;;;;;5015659;28;20042;-79
2021/08/04 12:12:52;;;;;;;2.42;1.10;;;;;;;;;;5024492;28;20102;-79
2021/08/04 12:15:27;;;;;;;0.90;0.70;;;;;;;;;;5006236;28;20041;-81
2021/08/04 12:18:05;;;;;;;2.63;1.17;;;;;;;;;;5025099;28;20037;-78
2021/08/04 12:20:37;;;;;;;2.85;0.95;;;;;;;;;;4989323;28;20045;-81
2021/08/04 12:23:06;;;;;;;1.92;1.20;;;;;;;;;;5021293;28;20053;-79
2021/08/04 12:25:41;;;;;;;4.63;1.50;;;;;;;;;;5022720;28;20048;-83
2021/08/04 12:28:09;;;;;;;2.40;1.30;;;;;;;;;;4995393;28;20843;-78
2021/08/04 12:30:40;;;;;;;4.18;1.30;;;;;;;;;;4996412;28;20072;-78
2021/08/04 12:33:18;;;;;;;2.67;1.55;;;;;;;;;;4987351;28;22390;-80
2021/08/04 12:36:21;;;;;;;3.63;2.10;;;;;;;;;;4994919;28;20112;-80
2021/08/04 12:38:52;;;;;;;6.30;3.40;;;;;;;;;;5003615;28;20131;-84
2021/08/04 12:41:21;;;;;;;5.53;2.60;;;;;;;;;;4990283;28;20041;-80
2021/08/04 12:43:54;;;;;;;4.63;2.55;;;;;;;;;;5001453;28;20048;-79
2021/08/04 12:46:35;;;;;;;3.72;2.50;;;;;;;;;;5006360;28;20492;-82
2021/08/04 12:49:02;;;;;;;6.50;2.83;;;;;;;;;;5014628;28;20103;-81
2021/08/04 12:51:29;;;;;;;10.27;3.25;;;;;;;;;;4988831;28;20045;-88
2021/08/04 12:54:00;;;;;;;4.85;3.00;;;;;;;;;;4988107;28;20041;-80
2021/08/04 12:56:32;;;;;;;5.45;2.10;;;;;;;;;;4989797;28;20037;-81
2021/08/04 12:59:00;;;;;;;6.88;2.40;;;;;;;;;;4996061;28;20048;-79
2021/08/04 13:01:36;;;;;;;3.72;2.35;;;;;;;;;;5020022;28;20053;-80
2021/08/04 13:04:21;;;;;;;4.80;2.30;;;;;;;;;;4964291;28;20053;-83
2021/08/04 13:06:51;;;;;;;15.50;7.57;;;;;;;;;;4984565;28;20122;-79
2021/08/04 13:09:21;;;;;;;62.30;34.75;;;;;;;;;;4978159;28;20053;-79
2021/08/04 13:11:50;;;;;;;41.67;23.33;;;;;;;;;;4969870;28;20555;-83
2021/08/04 13:14:18;;;;;;;13.90;8.45;;;;;;;;;;4992150;28;20050;-88
2021/08/04 13:16:47;;;;;;;20.80;11.30;;;;;;;;;;4985095;28;20037;-82
2021/08/04 13:19:25;;;;;;;12.05;6.13;;;;;;;;;;4983665;28;20058;-82
2021/08/04 13:22:08;;;;;;;11.68;6.20;;;;;;;;;;4982393;28;20041;-80
2021/08/04 13:24:39;;;;;;;8.27;5.07;;;;;;;;;;4974034;28;20064;-82
2021/08/04 13:27:30;;;;;;;6.40;3.38;;;;;;;;;;4988304;28;20050;-80
2021/08/04 13:30:21;;;;;;;8.82;4.47;;;;;;;;;;4974905;28;21165;-80
2021/08/04 13:32:51;;;;;;;7.75;4.65;;;;;;;;;;4975169;28;20132;-81
2021/08/04 13:35:19;;;;;;;6.00;3.50;;;;;;;;;;4958703;28;20450;-80
2021/08/04 13:37:46;;;;;;;6.05;3.85;;;;;;;;;;4944780;28;20034;-82
2021/08/04 13:40:14;;;;;;;;;;;;;;;;;;4961266;28;20050;-81
2021/08/04 13:45:39;;;;;;;5.47;4.28;;;;;;;;;;4946916;28;20091;-83
2021/08/04 13:48:07;;;;;;;8.13;3.67;;;;;;;;;;4955519;28;20050;-81
2021/08/04 13:50:36;;;;;;;5.47;3.28;;;;;;;;;;4968616;28;20104;-81
2021/08/04 13:53:04;;;;;;;6.40;3.67;;;;;;;;;;4974674;28;20510;-82
2021/08/04 13:55:36;;;;;;;5.57;3.28;;;;;;;;;;4980343;28;20119;-80
2021/08/04 13:58:04;;;;;;;6.22;4.40;;;;;;;;;;4957112;28;20042;-81
2021/08/04 14:00:37;;;;;;;7.47;5.00;;;;;;;;;;4977637;28;20053;-80
2021/08/04 14:03:08;;;;;;;7.05;4.07;;;;;;;;;;4952994;28;20061;-79
2021/08/04 14:05:39;;;;;;;7.53;4.72;;;;;;;;;;4972603;28;20045;-82
2021/08/04 14:08:13;;;;;;;7.35;3.92;;;;;;;;;;4963940;28;20050;-81
2021/08/04 14:10:40;;;;;;;5.65;3.35;;;;;;;;;;4969016;28;20081;-79
2021/08/04 14:13:08;;;;;;;7.40;4.57;;;;;;;;;;4983658;28;20038;-81
2021/08/04 14:15:36;;;;;;;7.18;5.03;;;;;;;;;;4976654;28;20045;-79
2021/08/04 14:18:06;;;;;;;7.82;5.15;;;;;;;;;;4871383;28;20533;-80
2021/08/04 14:20:35;;;;;;;12.52;5.43;;;;;;;;;;4896311;28;20496;-85
2021/08/04 14:23:03;;;;;;;7.55;4.75;;;;;;;;;;4943252;28;20056;-81
2021/08/04 14:25:30;;;;;;;8.07;4.53;;;;;;;;;;4942972;28;20144;-85
2021/08/04 14:27:58;;;;;;;6.70;3.92;;;;;;;;;;4986808;28;20111;-79
2021/08/04 14:30:25;;;;;;;4.93;3.22;;;;;;;;;;4945921;28;20803;-79
2021/08/04 14:32:53;;;;;;;7.43;3.80;;;;;;;;;;4973365;28;20049;-80
2021/08/04 14:35:21;;;;;;;9.25;4.78;;;;;;;;;;4973501;28;20115;-84
2021/08/04 14:37:49;;;;;;;6.40;3.65;;;;;;;;;;4991804;28;20053;-82
2021/08/04 14:40:16;;;;;;;6.53;3.38;;;;;;;;;;4974600;28;20095;-80
2021/08/04 14:42:44;;;;;;;10.38;5.68;;;;;;;;;;4958276;28;20072;-80
2021/08/04 14:45:14;;;;;;;7.55;4.13;;;;;;;;;;4976563;28;20053;-81
2021/08/04 14:47:42;;;;;;;7.20;4.97;;;;;;;;;;4972943;28;20837;-80
2021/08/04 14:50:10;;;;;;;5.60;4.10;;;;;;;;;;4943361;28;20037;-79
2021/08/04 14:52:37;;;;;;;6.93;4.68;;;;;;;;;;4973567;28;20127;-80
2021/08/04 14:55:05;;;;;;;8.23;4.22;;;;;;;;;;4969460;28;20787;-82
2021/08/04 14:57:32;;;;;;;5.82;3.30;;;;;;;;;;4979963;28;20436;-78